sensor_id;sensor_type;location;lat;lon;timestamp;temperature;humidity
2543;DHT22;1116;51.502;7.414;2024-02-26T00:00:52;6.50;27.80
2543;DHT22;1116;51.502;7.414;2024-02-26T00:03:25;6.40;27.50
2543;DHT22;1116;51.502;7.414;2024-02-26T00:05:58;6.50;28.00
2543;DHT22;1116;51.502;7.414;2024-02-26T00:08:29;6.40;28.00
2543;DHT22;1116;51.502;7.414;2024-02-26T00:10:59;6.50;28.50
2543;DHT22;1116;51.502;7.414;2024-02-26T00:13:29;6.40;28.00
2543;DHT22;1116;51.502;7.414;2024-02-26T00:15:59;6.40;28.70
2543;DHT22;1116;51.502;7.414;2024-02-26T00:18:29;6.40;28.60
2543;DHT22;1116;51.502;7.414;2024-02-26T00:21:02;6.40;28.40
2543;DHT22;1116;51.502;7.414;2024-02-26T00:23:32;6.40;28.70
2543;DHT22;1116;51.502;7.414;2024-02-26T00:26:02;6.30;29.10
2543;DHT22;1116;51.502;7.414;2024-02-26T00:28:32;6.70;29.20
2543;DHT22;1116;51.502;7.414;2024-02-26T00:31:03;6.30;29.00
2543;DHT22;1116;51.502;7.414;2024-02-26T00:33:33;6.60;30.00
2543;DHT22;1116;51.502;7.414;2024-02-26T00:36:07;6.20;29.50
2543;DHT22;1116;51.502;7.414;2024-02-26T00:38:37;6.20;29.70
2543;DHT22;1116;51.502;7.414;2024-02-26T00:41:07;6.20;29.80
2543;DHT22;1116;51.502;7.414;2024-02-26T00:43:37;6.20;29.80
2543;DHT22;1116;51.502;7.414;2024-02-26T00:46:09;6.30;29.80
2543;DHT22;1116;51.502;7.414;2024-02-26T00:48:39;6.40;29.90
2543;DHT22;1116;51.502;7.414;2024-02-26T00:51:16;6.50;29.90
2543;DHT22;1116;51.502;7.414;2024-02-26T00:53:50;6.50;29.50
2543;DHT22;1116;51.502;7.414;2024-02-26T00:56:21;6.40;29.90
2543;DHT22;1116;51.502;7.414;2024-02-26T00:58:51;6.40;29.90
2543;DHT22;1116;51.502;7.414;2024-02-26T01:01:21;6.40;29.90
2543;DHT22;1116;51.502;7.414;2024-02-26T01:03:53;6.40;29.90
2543;DHT22;1116;51.502;7.414;2024-02-26T01:06:26;6.40;29.90
2543;DHT22;1116;51.502;7.414;2024-02-26T01:08:56;6.40;29.90
2543;DHT22;1116;51.502;7.414;2024-02-26T01:11:26;6.40;29.90
2543;DHT22;1116;51.502;7.414;2024-02-26T01:13:56;6.40;29.90
2543;DHT22;1116;51.502;7.414;2024-02-26T01:16:26;6.30;29.90
2543;DHT22;1116;51.502;7.414;2024-02-26T01:18:58;6.30;31.10
2543;DHT22;1116;51.502;7.414;2024-02-26T01:21:30;6.30;30.60
2543;DHT22;1116;51.502;7.414;2024-02-26T01:24:00;6.20;30.70
2543;DHT22;1116;51.502;7.414;2024-02-26T01:26:30;6.10;31.60
2543;DHT22;1116;51.502;7.414;2024-02-26T01:29:00;6.20;32.70
2543;DHT22;1116;51.502;7.414;2024-02-26T01:31:30;6.20;31.50
2543;DHT22;1116;51.502;7.414;2024-02-26T01:34:01;6.30;32.10
2543;DHT22;1116;51.502;7.414;2024-02-26T01:36:34;6.60;31.10
2543;DHT22;1116;51.502;7.414;2024-02-26T01:39:04;6.30;29.80
2543;DHT22;1116;51.502;7.414;2024-02-26T01:41:34;6.40;29.90
2543;DHT22;1116;51.502;7.414;2024-02-26T01:44:04;6.40;29.90
2543;DHT22;1116;51.502;7.414;2024-02-26T01:46:34;6.50;29.40
2543;DHT22;1116;51.502;7.414;2024-02-26T01:49:06;6.40;29.90
2543;DHT22;1116;51.502;7.414;2024-02-26T01:51:42;6.40;29.90
2543;DHT22;1116;51.502;7.414;2024-02-26T01:54:13;6.40;29.90
2543;DHT22;1116;51.502;7.414;2024-02-26T01:56:43;6.40;29.90
2543;DHT22;1116;51.502;7.414;2024-02-26T01:59:14;6.40;29.30
2543;DHT22;1116;51.502;7.414;2024-02-26T02:01:45;6.40;29.60
2543;DHT22;1116;51.502;7.414;2024-02-26T02:04:18;6.40;29.50
2543;DHT22;1116;51.502;7.414;2024-02-26T02:06:51;6.40;29.30
2543;DHT22;1116;51.502;7.414;2024-02-26T02:09:22;6.40;29.50
2543;DHT22;1116;51.502;7.414;2024-02-26T02:11:52;6.40;29.30
2543;DHT22;1116;51.502;7.414;2024-02-26T02:14:23;6.40;29.70
2543;DHT22;1116;51.502;7.414;2024-02-26T02:16:53;6.40;29.80
2543;DHT22;1116;51.502;7.414;2024-02-26T02:19:23;6.40;29.70
2543;DHT22;1116;51.502;7.414;2024-02-26T02:21:56;6.50;29.90
2543;DHT22;1116;51.502;7.414;2024-02-26T02:24:26;6.50;29.00
2543;DHT22;1116;51.502;7.414;2024-02-26T02:26:56;6.40;28.90
2543;DHT22;1116;51.502;7.414;2024-02-26T02:29:27;6.40;28.60
2543;DHT22;1116;51.502;7.414;2024-02-26T02:31:57;6.40;29.00
2543;DHT22;1116;51.502;7.414;2024-02-26T02:34:29;6.40;29.10
2543;DHT22;1116;51.502;7.414;2024-02-26T02:37:02;6.40;28.60
2543;DHT22;1116;51.502;7.414;2024-02-26T02:39:32;6.40;28.50
2543;DHT22;1116;51.502;7.414;2024-02-26T02:42:02;6.40;28.40
2543;DHT22;1116;51.502;7.414;2024-02-26T02:44:32;6.40;29.30
2543;DHT22;1116;51.502;7.414;2024-02-26T02:47:03;6.50;28.40
2543;DHT22;1116;51.502;7.414;2024-02-26T02:49:32;6.50;28.90
2543;DHT22;1116;51.502;7.414;2024-02-26T02:52:06;6.50;29.00
2543;DHT22;1116;51.502;7.414;2024-02-26T02:54:39;6.40;28.70
2543;DHT22;1116;51.502;7.414;2024-02-26T02:57:09;6.40;28.90
2543;DHT22;1116;51.502;7.414;2024-02-26T02:59:39;6.50;28.60
2543;DHT22;1116;51.502;7.414;2024-02-26T03:02:09;6.40;28.70
2543;DHT22;1116;51.502;7.414;2024-02-26T03:04:39;6.40;28.70
2543;DHT22;1116;51.502;7.414;2024-02-26T03:07:12;6.50;28.60
2543;DHT22;1116;51.502;7.414;2024-02-26T03:09:44;6.40;28.90
2543;DHT22;1116;51.502;7.414;2024-02-26T03:12:14;6.40;29.30
2543;DHT22;1116;51.502;7.414;2024-02-26T03:14:45;6.50;29.20
2543;DHT22;1116;51.502;7.414;2024-02-26T03:17:15;6.40;28.70
2543;DHT22;1116;51.502;7.414;2024-02-26T03:19:45;6.40;29.30
2543;DHT22;1116;51.502;7.414;2024-02-26T03:22:23;6.40;28.80
2543;DHT22;1116;51.502;7.414;2024-02-26T03:24:53;6.30;29.10
2543;DHT22;1116;51.502;7.414;2024-02-26T03:27:23;6.30;29.90
2543;DHT22;1116;51.502;7.414;2024-02-26T03:29:53;6.40;29.60
2543;DHT22;1116;51.502;7.414;2024-02-26T03:32:22;6.40;29.90
2543;DHT22;1116;51.502;7.414;2024-02-26T03:34:53;6.40;29.90
2543;DHT22;1116;51.502;7.414;2024-02-26T03:37:26;6.40;29.90
2543;DHT22;1116;51.502;7.414;2024-02-26T03:39:56;6.40;30.00
2543;DHT22;1116;51.502;7.414;2024-02-26T03:42:28;6.30;29.90
2543;DHT22;1116;51.502;7.414;2024-02-26T03:44:58;6.30;31.50
2543;DHT22;1116;51.502;7.414;2024-02-26T03:47:28;6.20;32.20
2543;DHT22;1116;51.502;7.414;2024-02-26T03:49:58;6.20;33.20
2543;DHT22;1116;51.502;7.414;2024-02-26T03:52:33;6.20;35.10
2543;DHT22;1116;51.502;7.414;2024-02-26T03:55:01;6.10;35.90
2543;DHT22;1116;51.502;7.414;2024-02-26T03:57:31;6.00;36.90
2543;DHT22;1116;51.502;7.414;2024-02-26T04:00:01;6.00;39.90
2543;DHT22;1116;51.502;7.414;2024-02-26T04:02:31;6.00;41.00
2543;DHT22;1116;51.502;7.414;2024-02-26T04:05:01;6.00;44.80
2543;DHT22;1116;51.502;7.414;2024-02-26T04:07:34;6.00;46.50
2543;DHT22;1116;51.502;7.414;2024-02-26T04:10:08;6.00;47.00
2543;DHT22;1116;51.502;7.414;2024-02-26T04:12:39;6.00;47.90
2543;DHT22;1116;51.502;7.414;2024-02-26T04:15:11;5.90;48.80
2543;DHT22;1116;51.502;7.414;2024-02-26T04:17:41;5.80;49.80
2543;DHT22;1116;51.502;7.414;2024-02-26T04:20:14;5.90;51.70
2543;DHT22;1116;51.502;7.414;2024-02-26T04:22:48;5.80;52.90
2543;DHT22;1116;51.502;7.414;2024-02-26T04:25:18;5.70;54.60
2543;DHT22;1116;51.502;7.414;2024-02-26T04:27:48;5.80;59.60
2543;DHT22;1116;51.502;7.414;2024-02-26T04:30:18;5.80;60.20
2543;DHT22;1116;51.502;7.414;2024-02-26T04:32:48;5.80;65.90
2543;DHT22;1116;51.502;7.414;2024-02-26T04:35:18;5.80;69.70
2543;DHT22;1116;51.502;7.414;2024-02-26T04:37:51;5.80;73.00
2543;DHT22;1116;51.502;7.414;2024-02-26T04:40:20;5.90;69.80
2543;DHT22;1116;51.502;7.414;2024-02-26T04:42:51;5.90;69.70
2543;DHT22;1116;51.502;7.414;2024-02-26T04:45:20;6.00;69.90
2543;DHT22;1116;51.502;7.414;2024-02-26T04:47:50;5.90;72.00
2543;DHT22;1116;51.502;7.414;2024-02-26T04:50:20;5.90;72.10
2543;DHT22;1116;51.502;7.414;2024-02-26T04:52:53;5.90;70.90
2543;DHT22;1116;51.502;7.414;2024-02-26T04:55:23;5.90;70.60
2543;DHT22;1116;51.502;7.414;2024-02-26T04:57:53;5.80;72.40
2543;DHT22;1116;51.502;7.414;2024-02-26T05:00:23;5.80;71.70
2543;DHT22;1116;51.502;7.414;2024-02-26T05:02:53;5.90;73.80
2543;DHT22;1116;51.502;7.414;2024-02-26T05:05:23;6.00;74.80
2543;DHT22;1116;51.502;7.414;2024-02-26T05:07:56;6.10;74.00
2543;DHT22;1116;51.502;7.414;2024-02-26T05:10:26;6.10;76.90
2543;DHT22;1116;51.502;7.414;2024-02-26T05:12:56;6.00;73.50
2543;DHT22;1116;51.502;7.414;2024-02-26T05:15:26;6.10;74.20
2543;DHT22;1116;51.502;7.414;2024-02-26T05:17:57;6.00;71.40
2543;DHT22;1116;51.502;7.414;2024-02-26T05:20:27;6.00;73.10
2543;DHT22;1116;51.502;7.414;2024-02-26T05:23:00;6.10;74.90
2543;DHT22;1116;51.502;7.414;2024-02-26T05:25:31;6.10;75.20
2543;DHT22;1116;51.502;7.414;2024-02-26T05:28:01;6.10;75.70
2543;DHT22;1116;51.502;7.414;2024-02-26T05:30:31;6.10;74.70
2543;DHT22;1116;51.502;7.414;2024-02-26T05:33:01;6.00;75.80
2543;DHT22;1116;51.502;7.414;2024-02-26T05:35:31;6.00;76.80
2543;DHT22;1116;51.502;7.414;2024-02-26T05:38:04;6.00;78.70
2543;DHT22;1116;51.502;7.414;2024-02-26T05:40:35;5.90;82.10
2543;DHT22;1116;51.502;7.414;2024-02-26T05:43:06;5.90;92.40
2543;DHT22;1116;51.502;7.414;2024-02-26T05:45:35;5.90;93.80
2543;DHT22;1116;51.502;7.414;2024-02-26T05:48:07;6.00;95.10
2543;DHT22;1116;51.502;7.414;2024-02-26T05:50:37;5.80;98.30
2543;DHT22;1116;51.502;7.414;2024-02-26T05:53:09;5.70;99.90
2543;DHT22;1116;51.502;7.414;2024-02-26T05:55:39;5.60;99.90
2543;DHT22;1116;51.502;7.414;2024-02-26T05:58:10;5.70;99.90
2543;DHT22;1116;51.502;7.414;2024-02-26T06:00:41;5.80;99.90
2543;DHT22;1116;51.502;7.414;2024-02-26T06:03:11;5.70;99.90
2543;DHT22;1116;51.502;7.414;2024-02-26T06:05:42;5.80;99.90
2543;DHT22;1116;51.502;7.414;2024-02-26T06:08:15;5.70;99.90
2543;DHT22;1116;51.502;7.414;2024-02-26T06:10:45;5.70;99.90
2543;DHT22;1116;51.502;7.414;2024-02-26T06:13:15;5.80;99.90
2543;DHT22;1116;51.502;7.414;2024-02-26T06:15:45;5.80;99.90
2543;DHT22;1116;51.502;7.414;2024-02-26T06:18:15;5.70;99.90
2543;DHT22;1116;51.502;7.414;2024-02-26T06:20:46;5.70;99.90
2543;DHT22;1116;51.502;7.414;2024-02-26T06:23:19;5.70;99.90
2543;DHT22;1116;51.502;7.414;2024-02-26T06:25:49;5.70;99.90
2543;DHT22;1116;51.502;7.414;2024-02-26T06:28:19;5.70;99.90
2543;DHT22;1116;51.502;7.414;2024-02-26T06:30:49;5.60;99.90
2543;DHT22;1116;51.502;7.414;2024-02-26T06:33:19;5.60;99.90
2543;DHT22;1116;51.502;7.414;2024-02-26T06:35:49;5.60;99.90
2543;DHT22;1116;51.502;7.414;2024-02-26T06:38:22;5.70;99.90
2543;DHT22;1116;51.502;7.414;2024-02-26T06:40:53;5.60;99.90
2543;DHT22;1116;51.502;7.414;2024-02-26T06:43:24;5.60;99.90
2543;DHT22;1116;51.502;7.414;2024-02-26T06:46:03;5.60;99.90
2543;DHT22;1116;51.502;7.414;2024-02-26T06:48:33;5.60;99.90
2543;DHT22;1116;51.502;7.414;2024-02-26T06:51:04;5.60;99.90
2543;DHT22;1116;51.502;7.414;2024-02-26T06:53:37;5.70;99.90
2543;DHT22;1116;51.502;7.414;2024-02-26T06:56:07;5.70;99.90
2543;DHT22;1116;51.502;7.414;2024-02-26T06:58:37;5.70;99.90
2543;DHT22;1116;51.502;7.414;2024-02-26T07:01:07;5.60;99.90
2543;DHT22;1116;51.502;7.414;2024-02-26T07:03:39;5.60;99.90
2543;DHT22;1116;51.502;7.414;2024-02-26T07:06:09;5.70;99.90
2543;DHT22;1116;51.502;7.414;2024-02-26T07:08:43;5.70;99.90
2543;DHT22;1116;51.502;7.414;2024-02-26T07:11:13;5.70;99.90
2543;DHT22;1116;51.502;7.414;2024-02-26T07:13:43;5.80;99.90
2543;DHT22;1116;51.502;7.414;2024-02-26T07:16:13;5.70;99.90
2543;DHT22;1116;51.502;7.414;2024-02-26T07:18:43;5.80;99.90
2543;DHT22;1116;51.502;7.414;2024-02-26T07:21:13;5.70;99.90
2543;DHT22;1116;51.502;7.414;2024-02-26T07:23:45;5.70;99.90
2543;DHT22;1116;51.502;7.414;2024-02-26T07:26:16;5.80;99.90
2543;DHT22;1116;51.502;7.414;2024-02-26T07:28:46;5.80;99.90
2543;DHT22;1116;51.502;7.414;2024-02-26T07:31:17;5.80;99.90
2543;DHT22;1116;51.502;7.414;2024-02-26T07:33:47;5.90;99.90
2543;DHT22;1116;51.502;7.414;2024-02-26T07:36:18;5.90;99.90
2543;DHT22;1116;51.502;7.414;2024-02-26T07:38:51;5.90;99.90
2543;DHT22;1116;51.502;7.414;2024-02-26T07:41:21;6.00;99.90
2543;DHT22;1116;51.502;7.414;2024-02-26T07:43:53;6.10;99.90
2543;DHT22;1116;51.502;7.414;2024-02-26T07:46:23;6.10;99.90
2543;DHT22;1116;51.502;7.414;2024-02-26T07:48:53;6.10;99.90
2543;DHT22;1116;51.502;7.414;2024-02-26T07:51:23;6.10;99.90
2543;DHT22;1116;51.502;7.414;2024-02-26T07:53:56;6.10;99.90
2543;DHT22;1116;51.502;7.414;2024-02-26T07:56:26;6.10;99.90
2543;DHT22;1116;51.502;7.414;2024-02-26T07:58:56;6.20;99.90
2543;DHT22;1116;51.502;7.414;2024-02-26T08:01:27;6.10;99.90
2543;DHT22;1116;51.502;7.414;2024-02-26T08:03:57;6.10;99.90
2543;DHT22;1116;51.502;7.414;2024-02-26T08:06:27;6.20;99.90
2543;DHT22;1116;51.502;7.414;2024-02-26T08:09:02;6.20;99.90
2543;DHT22;1116;51.502;7.414;2024-02-26T08:11:33;6.30;99.90
2543;DHT22;1116;51.502;7.414;2024-02-26T08:14:04;6.30;99.90
2543;DHT22;1116;51.502;7.414;2024-02-26T08:16:34;6.30;99.90
2543;DHT22;1116;51.502;7.414;2024-02-26T08:19:04;6.30;99.90
2543;DHT22;1116;51.502;7.414;2024-02-26T08:21:35;6.30;99.90
2543;DHT22;1116;51.502;7.414;2024-02-26T08:24:08;6.30;99.90
2543;DHT22;1116;51.502;7.414;2024-02-26T08:26:38;6.20;99.90
2543;DHT22;1116;51.502;7.414;2024-02-26T08:29:08;6.20;99.90
2543;DHT22;1116;51.502;7.414;2024-02-26T08:31:38;6.10;99.90
2543;DHT22;1116;51.502;7.414;2024-02-26T08:34:08;6.20;99.90
2543;DHT22;1116;51.502;7.414;2024-02-26T08:36:38;6.20;99.90
2543;DHT22;1116;51.502;7.414;2024-02-26T08:39:13;6.20;99.90
2543;DHT22;1116;51.502;7.414;2024-02-26T08:41:44;6.30;99.90
2543;DHT22;1116;51.502;7.414;2024-02-26T08:44:14;6.30;99.90
2543;DHT22;1116;51.502;7.414;2024-02-26T08:46:44;6.30;99.90
2543;DHT22;1116;51.502;7.414;2024-02-26T08:49:15;6.30;99.90
2543;DHT22;1116;51.502;7.414;2024-02-26T08:51:45;6.30;99.90
2543;DHT22;1116;51.502;7.414;2024-02-26T08:54:19;6.40;99.90
2543;DHT22;1116;51.502;7.414;2024-02-26T08:56:49;6.30;99.90
2543;DHT22;1116;51.502;7.414;2024-02-26T08:59:19;6.20;99.90
2543;DHT22;1116;51.502;7.414;2024-02-26T09:01:50;6.20;99.90
2543;DHT22;1116;51.502;7.414;2024-02-26T09:04:20;6.20;99.90
2543;DHT22;1116;51.502;7.414;2024-02-26T09:06:50;6.20;99.90
2543;DHT22;1116;51.502;7.414;2024-02-26T09:09:23;6.20;99.90
2543;DHT22;1116;51.502;7.414;2024-02-26T09:11:53;6.30;99.90
2543;DHT22;1116;51.502;7.414;2024-02-26T09:14:23;6.30;99.90
2543;DHT22;1116;51.502;7.414;2024-02-26T09:16:54;6.30;99.90
2543;DHT22;1116;51.502;7.414;2024-02-26T09:19:25;6.20;99.90
2543;DHT22;1116;51.502;7.414;2024-02-26T09:21:56;6.30;99.90
2543;DHT22;1116;51.502;7.414;2024-02-26T09:24:29;6.30;99.90
2543;DHT22;1116;51.502;7.414;2024-02-26T09:26:59;6.40;99.90
2543;DHT22;1116;51.502;7.414;2024-02-26T09:29:30;6.30;99.90
2543;DHT22;1116;51.502;7.414;2024-02-26T09:32:00;6.40;99.90
2543;DHT22;1116;51.502;7.414;2024-02-26T09:34:30;6.40;99.90
2543;DHT22;1116;51.502;7.414;2024-02-26T09:37:01;6.40;99.90
2543;DHT22;1116;51.502;7.414;2024-02-26T09:39:46;6.40;99.90
2543;DHT22;1116;51.502;7.414;2024-02-26T09:42:18;6.40;99.90
2543;DHT22;1116;51.502;7.414;2024-02-26T09:44:51;6.40;99.90
2543;DHT22;1116;51.502;7.414;2024-02-26T09:47:23;6.80;99.90
2543;DHT22;1116;51.502;7.414;2024-02-26T09:49:56;6.50;99.90
2543;DHT22;1116;51.502;7.414;2024-02-26T09:52:28;6.60;99.90
2543;DHT22;1116;51.502;7.414;2024-02-26T09:55:01;6.50;99.90
2543;DHT22;1116;51.502;7.414;2024-02-26T09:57:31;6.50;99.90
2543;DHT22;1116;51.502;7.414;2024-02-26T10:00:03;6.60;99.90
2543;DHT22;1116;51.502;7.414;2024-02-26T10:02:36;6.80;99.90
2543;DHT22;1116;51.502;7.414;2024-02-26T10:05:08;6.80;99.90
2543;DHT22;1116;51.502;7.414;2024-02-26T10:07:40;6.80;99.90
2543;DHT22;1116;51.502;7.414;2024-02-26T10:10:18;6.90;99.90
2543;DHT22;1116;51.502;7.414;2024-02-26T10:12:49;6.90;99.90
2543;DHT22;1116;51.502;7.414;2024-02-26T10:15:19;7.00;99.90
2543;DHT22;1116;51.502;7.414;2024-02-26T10:17:49;7.10;99.90
2543;DHT22;1116;51.502;7.414;2024-02-26T10:20:20;7.10;99.90
2543;DHT22;1116;51.502;7.414;2024-02-26T10:22:53;7.10;99.90
2543;DHT22;1116;51.502;7.414;2024-02-26T10:25:26;7.10;99.90
2543;DHT22;1116;51.502;7.414;2024-02-26T10:28:00;7.50;99.90
2543;DHT22;1116;51.502;7.414;2024-02-26T10:30:32;7.10;99.90
2543;DHT22;1116;51.502;7.414;2024-02-26T10:33:07;7.10;99.90
2543;DHT22;1116;51.502;7.414;2024-02-26T10:35:38;7.30;99.90
2543;DHT22;1116;51.502;7.414;2024-02-26T10:38:08;7.40;99.90
2543;DHT22;1116;51.502;7.414;2024-02-26T10:40:41;7.40;99.90
2543;DHT22;1116;51.502;7.414;2024-02-26T10:43:10;7.50;99.90
2543;DHT22;1116;51.502;7.414;2024-02-26T10:45:43;7.50;99.90
2543;DHT22;1116;51.502;7.414;2024-02-26T10:48:15;7.50;99.90
2543;DHT22;1116;51.502;7.414;2024-02-26T10:50:46;7.50;99.90
2543;DHT22;1116;51.502;7.414;2024-02-26T10:53:22;7.50;99.90
2543;DHT22;1116;51.502;7.414;2024-02-26T10:55:57;7.50;99.90
2543;DHT22;1116;51.502;7.414;2024-02-26T10:58:29;7.60;99.90
2543;DHT22;1116;51.502;7.414;2024-02-26T11:01:00;7.60;99.90
2543;DHT22;1116;51.502;7.414;2024-02-26T11:03:31;7.60;99.90
2543;DHT22;1116;51.502;7.414;2024-02-26T11:06:04;7.60;99.90
2543;DHT22;1116;51.502;7.414;2024-02-26T11:08:35;7.70;99.90
2543;DHT22;1116;51.502;7.414;2024-02-26T11:11:08;7.70;92.50
2543;DHT22;1116;51.502;7.414;2024-02-26T11:13:42;7.70;98.60
2543;DHT22;1116;51.502;7.414;2024-02-26T11:16:16;7.80;94.50
2543;DHT22;1116;51.502;7.414;2024-02-26T11:18:48;7.80;91.90
2543;DHT22;1116;51.502;7.414;2024-02-26T11:21:20;7.90;94.20
2543;DHT22;1116;51.502;7.414;2024-02-26T11:23:57;8.00;91.60
2543;DHT22;1116;51.502;7.414;2024-02-26T11:26:30;8.00;91.40
2543;DHT22;1116;51.502;7.414;2024-02-26T11:29:01;8.20;94.70
2543;DHT22;1116;51.502;7.414;2024-02-26T11:31:32;8.60;92.70
2543;DHT22;1116;51.502;7.414;2024-02-26T11:34:03;8.20;92.80
2543;DHT22;1116;51.502;7.414;2024-02-26T11:36:34;8.20;90.80
2543;DHT22;1116;51.502;7.414;2024-02-26T11:39:06;8.20;86.80
2543;DHT22;1116;51.502;7.414;2024-02-26T11:41:39;8.20;86.60
2543;DHT22;1116;51.502;7.414;2024-02-26T11:44:09;8.10;88.60
2543;DHT22;1116;51.502;7.414;2024-02-26T11:46:40;8.30;91.10
2543;DHT22;1116;51.502;7.414;2024-02-26T11:49:29;8.20;88.50
2543;DHT22;1116;51.502;7.414;2024-02-26T11:52:00;8.10;89.30
2543;DHT22;1116;51.502;7.414;2024-02-26T11:54:45;8.20;90.50
2543;DHT22;1116;51.502;7.414;2024-02-26T11:57:26;8.20;90.50
2543;DHT22;1116;51.502;7.414;2024-02-26T12:00:11;8.30;89.00
2543;DHT22;1116;51.502;7.414;2024-02-26T12:02:45;8.30;89.90
2543;DHT22;1116;51.502;7.414;2024-02-26T12:05:16;8.20;87.60
2543;DHT22;1116;51.502;7.414;2024-02-26T12:07:49;8.20;87.30
2543;DHT22;1116;51.502;7.414;2024-02-26T12:10:26;8.20;90.90
2543;DHT22;1116;51.502;7.414;2024-02-26T12:13:07;8.20;91.90
2543;DHT22;1116;51.502;7.414;2024-02-26T12:15:45;8.20;92.00
2543;DHT22;1116;51.502;7.414;2024-02-26T12:18:17;8.20;91.90
2543;DHT22;1116;51.502;7.414;2024-02-26T12:20:58;8.20;85.10
2543;DHT22;1116;51.502;7.414;2024-02-26T12:23:30;8.00;90.40
2543;DHT22;1116;51.502;7.414;2024-02-26T12:26:00;8.10;90.00
2543;DHT22;1116;51.502;7.414;2024-02-26T12:28:37;8.10;93.10
2543;DHT22;1116;51.502;7.414;2024-02-26T12:31:08;8.10;91.80
2543;DHT22;1116;51.502;7.414;2024-02-26T12:33:41;8.00;90.40
2543;DHT22;1116;51.502;7.414;2024-02-26T12:36:13;8.00;92.90
2543;DHT22;1116;51.502;7.414;2024-02-26T12:38:43;8.00;91.80
2543;DHT22;1116;51.502;7.414;2024-02-26T12:41:14;8.00;91.20
2543;DHT22;1116;51.502;7.414;2024-02-26T12:43:47;7.90;92.30
2543;DHT22;1116;51.502;7.414;2024-02-26T12:46:17;7.90;93.90
2543;DHT22;1116;51.502;7.414;2024-02-26T12:48:48;7.90;96.40
2543;DHT22;1116;51.502;7.414;2024-02-26T12:51:18;8.00;96.90
2543;DHT22;1116;51.502;7.414;2024-02-26T12:53:49;7.90;92.50
2543;DHT22;1116;51.502;7.414;2024-02-26T12:56:20;7.80;93.20
2543;DHT22;1116;51.502;7.414;2024-02-26T12:58:53;7.80;91.20
2543;DHT22;1116;51.502;7.414;2024-02-26T13:01:25;7.80;92.20
2543;DHT22;1116;51.502;7.414;2024-02-26T13:03:55;7.80;93.70
2543;DHT22;1116;51.502;7.414;2024-02-26T13:06:28;7.60;85.70
2543;DHT22;1116;51.502;7.414;2024-02-26T13:08:58;7.70;93.10
2543;DHT22;1116;51.502;7.414;2024-02-26T13:11:29;7.70;93.40
2543;DHT22;1116;51.502;7.414;2024-02-26T13:14:02;7.70;93.30
2543;DHT22;1116;51.502;7.414;2024-02-26T13:16:34;7.70;91.00
2543;DHT22;1116;51.502;7.414;2024-02-26T13:19:10;7.70;86.00
2543;DHT22;1116;51.502;7.414;2024-02-26T13:21:41;7.70;90.30
2543;DHT22;1116;51.502;7.414;2024-02-26T13:24:13;7.70;83.10
2543;DHT22;1116;51.502;7.414;2024-02-26T13:26:43;7.80;83.40
2543;DHT22;1116;51.502;7.414;2024-02-26T13:29:19;7.70;77.80
2543;DHT22;1116;51.502;7.414;2024-02-26T13:31:54;7.80;78.90
2543;DHT22;1116;51.502;7.414;2024-02-26T13:34:24;7.80;80.40
2543;DHT22;1116;51.502;7.414;2024-02-26T13:36:55;7.80;76.70
2543;DHT22;1116;51.502;7.414;2024-02-26T13:39:27;7.90;77.50
2543;DHT22;1116;51.502;7.414;2024-02-26T13:41:55;7.90;77.20
2543;DHT22;1116;51.502;7.414;2024-02-26T13:44:28;7.90;75.20
2543;DHT22;1116;51.502;7.414;2024-02-26T13:46:58;8.00;74.30
2543;DHT22;1116;51.502;7.414;2024-02-26T13:49:28;7.90;72.30
2543;DHT22;1116;51.502;7.414;2024-02-26T13:51:59;7.90;68.80
2543;DHT22;1116;51.502;7.414;2024-02-26T13:54:29;8.00;73.90
2543;DHT22;1116;51.502;7.414;2024-02-26T13:56:59;8.10;69.60
2543;DHT22;1116;51.502;7.414;2024-02-26T13:59:32;8.10;71.80
2543;DHT22;1116;51.502;7.414;2024-02-26T14:02:03;8.20;71.80
2543;DHT22;1116;51.502;7.414;2024-02-26T14:04:33;8.30;68.70
2543;DHT22;1116;51.502;7.414;2024-02-26T14:07:03;8.30;68.40
2543;DHT22;1116;51.502;7.414;2024-02-26T14:09:35;8.50;69.30
2543;DHT22;1116;51.502;7.414;2024-02-26T14:12:15;8.20;65.90
2543;DHT22;1116;51.502;7.414;2024-02-26T14:14:53;8.30;67.00
2543;DHT22;1116;51.502;7.414;2024-02-26T14:17:26;8.20;61.60
2543;DHT22;1116;51.502;7.414;2024-02-26T14:19:57;8.20;64.60
2543;DHT22;1116;51.502;7.414;2024-02-26T14:22:28;8.20;64.90
2543;DHT22;1116;51.502;7.414;2024-02-26T14:24:58;8.30;64.80
2543;DHT22;1116;51.502;7.414;2024-02-26T14:27:29;8.30;61.70
2543;DHT22;1116;51.502;7.414;2024-02-26T14:30:02;8.30;60.60
2543;DHT22;1116;51.502;7.414;2024-02-26T14:32:32;8.30;58.20
2543;DHT22;1116;51.502;7.414;2024-02-26T14:35:06;8.30;57.90
2543;DHT22;1116;51.502;7.414;2024-02-26T14:37:43;8.30;59.10
2543;DHT22;1116;51.502;7.414;2024-02-26T14:40:15;8.50;61.80
2543;DHT22;1116;51.502;7.414;2024-02-26T14:42:45;8.50;57.30
2543;DHT22;1116;51.502;7.414;2024-02-26T14:45:18;8.50;55.40
2543;DHT22;1116;51.502;7.414;2024-02-26T14:47:49;8.50;54.60
2543;DHT22;1116;51.502;7.414;2024-02-26T14:50:19;8.50;55.00
2543;DHT22;1116;51.502;7.414;2024-02-26T14:52:49;8.50;53.30
2543;DHT22;1116;51.502;7.414;2024-02-26T14:55:19;8.60;53.80
2543;DHT22;1116;51.502;7.414;2024-02-26T14:57:52;8.50;52.00
2543;DHT22;1116;51.502;7.414;2024-02-26T15:00:24;8.50;52.60
2543;DHT22;1116;51.502;7.414;2024-02-26T15:02:54;8.60;54.90
2543;DHT22;1116;51.502;7.414;2024-02-26T15:05:25;8.10;51.60
2543;DHT22;1116;51.502;7.414;2024-02-26T15:07:55;8.40;52.00
2543;DHT22;1116;51.502;7.414;2024-02-26T15:10:25;8.50;52.00
2543;DHT22;1116;51.502;7.414;2024-02-26T15:12:56;8.50;50.30
2543;DHT22;1116;51.502;7.414;2024-02-26T15:15:30;8.50;50.80
2543;DHT22;1116;51.502;7.414;2024-02-26T15:18:01;8.80;49.70
2543;DHT22;1116;51.502;7.414;2024-02-26T15:20:31;8.50;49.00
2543;DHT22;1116;51.502;7.414;2024-02-26T15:23:01;8.40;44.20
2543;DHT22;1116;51.502;7.414;2024-02-26T15:25:32;8.40;46.20
2543;DHT22;1116;51.502;7.414;2024-02-26T15:28:01;8.40;45.80
2543;DHT22;1116;51.502;7.414;2024-02-26T15:30:36;8.40;46.50
2543;DHT22;1116;51.502;7.414;2024-02-26T15:33:06;8.40;45.90
2543;DHT22;1116;51.502;7.414;2024-02-26T15:35:38;8.40;45.50
2543;DHT22;1116;51.502;7.414;2024-02-26T15:38:09;8.30;46.80
2543;DHT22;1116;51.502;7.414;2024-02-26T15:40:40;8.40;44.90
2543;DHT22;1116;51.502;7.414;2024-02-26T15:43:15;8.30;43.80
2543;DHT22;1116;51.502;7.414;2024-02-26T15:45:49;8.30;45.20
2543;DHT22;1116;51.502;7.414;2024-02-26T15:48:19;8.40;43.20
2543;DHT22;1116;51.502;7.414;2024-02-26T15:50:49;8.30;45.70
2543;DHT22;1116;51.502;7.414;2024-02-26T15:53:20;8.30;43.30
2543;DHT22;1116;51.502;7.414;2024-02-26T15:55:50;8.30;44.20
2543;DHT22;1116;51.502;7.414;2024-02-26T15:58:20;8.30;44.80
2543;DHT22;1116;51.502;7.414;2024-02-26T16:00:53;8.20;42.70
2543;DHT22;1116;51.502;7.414;2024-02-26T16:03:38;8.20;44.90
2543;DHT22;1116;51.502;7.414;2024-02-26T16:06:14;8.20;45.40
2543;DHT22;1116;51.502;7.414;2024-02-26T16:08:46;8.10;44.10
2543;DHT22;1116;51.502;7.414;2024-02-26T16:11:16;8.10;44.90
2543;DHT22;1116;51.502;7.414;2024-02-26T16:13:46;8.10;44.10
2543;DHT22;1116;51.502;7.414;2024-02-26T16:16:24;8.10;45.10
2543;DHT22;1116;51.502;7.414;2024-02-26T16:19:10;8.10;44.60
2543;DHT22;1116;51.502;7.414;2024-02-26T16:21:46;8.10;44.50
2543;DHT22;1116;51.502;7.414;2024-02-26T16:24:16;8.00;44.00
2543;DHT22;1116;51.502;7.414;2024-02-26T16:26:46;7.90;43.70
2543;DHT22;1116;51.502;7.414;2024-02-26T16:29:16;8.00;45.50
2543;DHT22;1116;51.502;7.414;2024-02-26T16:31:49;7.90;44.40
2543;DHT22;1116;51.502;7.414;2024-02-26T16:34:19;7.90;44.90
2543;DHT22;1116;51.502;7.414;2024-02-26T16:36:50;7.90;45.40
2543;DHT22;1116;51.502;7.414;2024-02-26T16:39:21;7.90;44.90
2543;DHT22;1116;51.502;7.414;2024-02-26T16:41:51;8.00;45.50
2543;DHT22;1116;51.502;7.414;2024-02-26T16:44:21;8.00;46.10